• Join FlightAware (Why Join?)
  • Login
  • US Flag 
02:05PM EDT


 

Airport Tracker/Info


-or-


 

Live Flight TrackerFlight Track Log ✈ DAL1550 ✈ 30-Apr-2013 ✈ KLAS - KMSP

Flight Track Log - Related Links

Times and Time Zones

All times are in EDT time to prevent confusion due to time zone crossing. See the DAL1550 flight status page for this flight to view local times or setup timezone preferences in your user account.

Time Position Orientation Groundspeed Altitude Reporting Facility
EDT Latitude Longitude Course Direction KTS MPH feet Rate Location/Type
10:27AM 36.0753 -115.1844 94° East 198 228 3,200  Level Los Angeles Center
10:28AM 36.0842 -115.2747 277° West 245 282 5,800 1,980 Climbing Los Angeles Center
10:29AM 36.1056 -115.2894 331° Northwest 249 287 6,800 2,580 Climbing Los Angeles Center
10:29AM 36.1419 -115.2928 356° North 254 292 8,200 3,060 Climbing Los Angeles Center
10:30AM 36.1834 -115.0097 90° East  Level FlightAware Approximate
10:30AM 36.1761 -115.2464 48° Northeast 266 306 10,000  Level Los Angeles Center
10:30AM 36.1864 -115.2092 71° East 279 321 10,500 1,080 Climbing Los Angeles Center
10:31AM 36.1897 -114.8387 80° East  Level FlightAware Approximate
10:31AM 36.1992 -115.1469 76° East 303 349 11,100  Level Los Angeles Center
10:32AM 36.1939 -114.6684 94° East  Level FlightAware Approximate
10:32AM 36.1986 -115.0203 90° East 366 421 12,500  Level Los Angeles Center
10:33AM 36.1986 -114.8814 90° East 401 461 14,200 1,620 Climbing Los Angeles Center
10:34AM 36.2000 -114.7328 89° East 428 493 15,900 1,680 Climbing Los Angeles Center
10:35AM 36.1983 -114.6108 91° East 441 507 17,700 2,280 Climbing Los Angeles Center
10:36AM 36.1956 -114.3928 91° East 453 521 20,600 2,100 Climbing Los Angeles Center
10:37AM 36.2106 -114.2336 83° East 471 542 22,100 1,440 Climbing Los Angeles Center
10:38AM 36.2969 -114.1125 48° Northeast 475 547 23,600 1,440 Climbing Los Angeles Center
10:39AM 36.3775 -113.9811 53° Northeast 481 554 25,100 1,680 Climbing Los Angeles Center
10:40AM 36.4550 -113.8442 55° Northeast 485 558 27,100 1,860 Climbing Los Angeles Center
10:41AM 36.5339 -113.7036 55° Northeast 475 547 29,000 1,560 Climbing Los Angeles Center
10:42AM 36.6100 -113.5717 54° Northeast 471 542 30,300 960 Climbing Los Angeles Center
10:43AM 36.6856 -113.4397 54° Northeast 469 540 31,000 300 Climbing Los Angeles Center
10:44AM 36.7608 -113.3075 55° Northeast 469 540 31,000  Level Los Angeles Center
10:45AM 36.8500 -113.1469 55° Northeast 471 542 31,000  Level Los Angeles Center
10:46AM 36.9253 -113.0147 55° Northeast 470 541 31,000  Level Los Angeles Center
10:47AM 36.9994 -112.8808 55° Northeast 471 542 31,000  Level Los Angeles Center
10:48AM 37.0736 -112.7469 55° Northeast 472 543 31,000  Level Los Angeles Center
10:49AM 37.1481 -112.6131 55° Northeast 473 544 31,000  Level Los Angeles Center
10:50AM 37.2372 -112.4522 55° Northeast 473 544 31,000  Level Los Angeles Center
10:51AM 37.3100 -112.3169 56° Northeast 472 543 31,000  Level Los Angeles Center
10:52AM 37.3828 -112.1817 56° Northeast 472 543 31,000  Level Los Angeles Center
10:53AM 37.4408 -112.0733 56° Northeast 472 543 31,000  Level Salt Lake Center
10:54AM 37.5294 -111.9083 56° Northeast 477 549 31,000  Level Salt Lake Center
10:55AM 37.5600 -111.8519 56° Northeast 480 552 31,000  Level Denver Center
10:56AM 37.6486 -111.6869 56° Northeast 475 547 31,000  Level Denver Center
10:56AM 37.6772 -111.6311 57° Northeast 476 548 31,000  Level Salt Lake Center
10:57AM 37.7514 -111.4944 56° Northeast 474 545 31,000  Level Salt Lake Center
10:58AM 37.8258 -111.3539 56° Northeast 480 552 31,000  Level Salt Lake Center
10:59AM 37.8989 -111.2147 56° Northeast 478 550 31,000  Level Salt Lake Center
11:01AM 37.9892 -111.0458 56° Northeast 481 554 31,000  Level Salt Lake Center
11:01AM 38.0322 -110.9606 57° Northeast 482 555 31,000  Level Denver Center
11:02AM 38.1094 -110.8156 56° Northeast 486 559 31,000  Level Denver Center
11:03AM 38.1328 -110.7697 57° Northeast 487 560 31,000  Level Salt Lake Center
11:04AM 38.2133 -110.6106 57° Northeast 482 555 31,000  Level Salt Lake Center
11:04AM 38.2606 -110.5181 57° Northeast 486 559 31,000  Level Denver Center
11:05AM 38.3311 -110.3808 57° Northeast 486 559 31,000  Level Denver Center
11:06AM 38.4139 -110.2189 57° Northeast 489 563 31,000  Level Denver Center
11:07AM 38.4383 -110.1736 55° Northeast 490 564 31,000  Level Salt Lake Center
11:07AM 38.4842 -110.0797 58° Northeast 490 564 31,000  Level Denver Center
11:08AM 38.5656 -109.9181 57° Northeast 487 560 31,000  Level Denver Center
11:10AM 38.6486 -109.7564 57° Northeast 489 563 31,000 420 Level Denver Center
11:11AM 38.7314 -109.5925 57° Northeast 492 566 32,000 960 Climbing Denver Center
11:12AM 38.7997 -109.4478 59° Northeast 494 568 33,000 480 Climbing Denver Center
11:13AM 38.8814 -109.2858 57° Northeast 489 563 33,000  Level Denver Center
11:14AM 38.9508 -109.1447 58° Northeast 490 564 33,000  Level Denver Center
11:15AM 39.0328 -108.9786 58° Northeast 495 570 33,000  Level Denver Center
11:16AM 39.1019 -108.8372 58° Northeast 491 565 33,000  Level Denver Center
11:17AM 39.1822 -108.6714 58° Northeast 493 567 33,000  Level Denver Center
11:18AM 39.2517 -108.5286 58° Northeast 496 571 33,000  Level Denver Center
11:19AM 39.3317 -108.3619 58° Northeast 495 570 33,000  Level Denver Center
11:20AM 39.4006 -108.2172 58° Northeast 492 566 33,000  Level Denver Center
11:21AM 39.4819 -108.0478 58° Northeast 498 573 33,000  Level Denver Center
11:22AM 39.5517 -107.9017 58° Northeast 501 577 33,000  Level Denver Center
11:23AM 39.6317 -107.7314 59° Northeast 499 574 33,000  Level Denver Center
11:24AM 39.7003 -107.5825 59° Northeast 502 578 33,000  Level Denver Center
11:25AM 39.7811 -107.4100 59° Northeast 503 579 33,000  Level Denver Center
11:26AM 39.8500 -107.2617 59° Northeast 501 577 33,000  Level Denver Center
11:27AM 39.9197 -107.1125 59° Northeast 501 577 33,000  Level Denver Center
11:28AM 39.9994 -106.9400 59° Northeast 501 577 33,000  Level Denver Center
11:29AM 40.0792 -106.7661 59° Northeast 501 577 33,000  Level Denver Center
11:30AM 40.1475 -106.6158 59° Northeast 504 580 33,000  Level Denver Center
11:31AM 40.2269 -106.4406 59° Northeast 500 575 33,000  Level Denver Center
11:32AM 40.2944 -106.2911 59° Northeast 500 575 33,000  Level Denver Center
11:33AM 40.3633 -106.1350 60° Northeast 499 574 33,000  Level Denver Center
11:34AM 40.4364 -105.9764 59° Northeast 505 581 33,000  Level Denver Center
11:35AM 40.5217 -105.7814 60° Northeast 512 589 33,000  Level Denver Center
11:36AM 40.5903 -105.6178 61° Northeast 511 588 33,000 -60 Level Denver Center
11:38AM 40.6461 -105.4632 65° Northeast  Level FlightAware Approximate
11:38AM 40.6583 -105.4569 65° Northeast 505 581 32,900  Level Denver Center
11:39AM 40.7339 -105.2875 59° Northeast 505 581 33,000  Climbing Denver Center
11:40AM 40.8014 -105.1314 60° Northeast 510 587 33,000  Level Denver Center
11:41AM 40.8814 -104.9550 59° Northeast 507 583 33,000  Level Denver Center
11:42AM 40.9481 -104.7983 61° Northeast 511 588 33,000  Level Denver Center
11:43AM 41.0250 -104.6167 61° Northeast 510 587 33,000  Level Denver Center
11:44AM 41.0922 -104.4597 60° Northeast 513 590 33,000  Level Denver Center
11:45AM 41.1706 -104.2775 60° Northeast 512 589 33,000  Level Denver Center
11:46AM 41.2378 -104.1192 61° Northeast 515 593 33,000  Level Denver Center
11:47AM 41.3150 -103.9353 61° Northeast 511 588 33,000  Level Denver Center
11:48AM 41.3794 -103.7792 61° Northeast 506 582 33,000  Level Denver Center
11:49AM 41.4550 -103.5939 61° Northeast 509 586 33,000  Level Denver Center
11:50AM 41.5194 -103.4356 61° Northeast 510 587 33,000  Level Denver Center
11:51AM 41.5964 -103.2475 61° Northeast 516 594 33,000  Level Denver Center
11:52AM 41.6611 -103.0867 62° Northeast 515 593 33,000  Level Denver Center
11:53AM 41.7367 -102.8992 62° Northeast 516 594 33,000  Level Denver Center
11:54AM 41.8000 -102.7389 62° Northeast 512 589 33,000  Level Denver Center
11:55AM 41.8750 -102.5514 62° Northeast 512 589 33,000  Level Denver Center
11:56AM 41.9392 -102.3897 62° Northeast 514 592 33,000  Level Denver Center
11:57AM 41.9981 -102.1947 68° East 513 590 33,000  Level Denver Center
11:58AM 42.0294 -102.0167 77° East 513 590 33,000  Level Denver Center
11:59AM 42.0597 -101.8058 79° East 513 590 33,000  Level Denver Center
12:00PM 42.0847 -101.6258 79° East 511 588 33,000  Level Denver Center
12:01PM 42.1106 -101.4447 79° East 513 590 33,000  Level Denver Center
12:02PM 42.1406 -101.2336 79° East 512 589 33,000  Level Denver Center
12:03PM 42.1664 -101.0528 79° East 512 589 33,000  Level Denver Center
12:04PM 42.1967 -100.8425 79° East 512 589 33,000  Level Denver Center
12:05PM 42.2214 -100.6625 79° East 509 586 33,000  Level Denver Center
12:06PM 42.2494 -100.4519 80° East 510 587 33,000  Level Denver Center
12:08PM 42.2736 -100.2708 80° East 512 589 33,000  Level Denver Center
12:09PM 42.3003 -100.0614 80° East 509 586 33,000  Level Denver Center
12:10PM 42.3236 -99.8833 80° East 504 580 33,000  Level Denver Center
12:11PM 42.3508 -99.6750 80° East 506 582 33,000  Level Denver Center
12:12PM 42.3714 -99.5064 81° East 510 587 33,000  Level Denver Center
12:13PM 42.3947 -99.3189 80° East 506 582 33,000  Level Denver Center
12:13PM 42.4039 -99.2444 81° East 507 583 33,000  Level Minneapolis Center
12:14PM 42.4267 -99.0536 81° East 510 587 33,000  Level Minneapolis Center
12:15PM 42.4497 -98.8653 81° East 507 583 33,000  Level Minneapolis Center
12:16PM 42.4806 -98.6783 77° East 510 587 33,000  Level Minneapolis Center
12:17PM 42.5633 -98.5264 53° Northeast 505 581 33,000  Level Minneapolis Center
12:18PM 42.6514 -98.3794 51° Northeast 501 577 33,000  Level Minneapolis Center
12:19PM 42.7486 -98.2139 51° Northeast 503 579 33,000  Level Minneapolis Center
12:20PM 42.8347 -98.0636 52° Northeast 504 580 33,000  Level Minneapolis Center
12:21PM 42.9222 -97.9144 51° Northeast 505 581 33,000  Level Minneapolis Center
12:22PM 43.0089 -97.7658 51° Northeast 504 580 33,000  Level Minneapolis Center
12:23PM 43.0961 -97.6139 52° Northeast 508 585 33,000  Level Minneapolis Center
12:24PM 43.2008 -97.4294 52° Northeast 511 588 33,000  Level Minneapolis Center
12:25PM 43.2864 -97.2764 52° Northeast 508 585 33,000  Level Minneapolis Center
12:26PM 43.3733 -97.1236 52° Northeast 509 586 33,000  Level Minneapolis Center
12:27PM 43.4603 -96.9714 52° Northeast 508 585 33,000  Level Minneapolis Center
12:28PM 43.5483 -96.8192 51° Northeast 511 588 33,000  Level Minneapolis Center
12:29PM 43.6344 -96.6653 52° Northeast 508 585 33,000  Level Minneapolis Center
12:30PM 43.7211 -96.5103 52° Northeast 512 589 33,000  Level Minneapolis Center
12:31PM 43.8236 -96.3253 52° Northeast 510 587 33,000  Level Minneapolis Center
12:32PM 43.9094 -96.1700 52° Northeast 512 589 33,000  Level Minneapolis Center
12:33PM 43.9939 -96.0158 53° Northeast 512 589 33,000  Level Minneapolis Center
12:35PM 44.0789 -95.8611 53° Northeast 513 590 33,000  Level Minneapolis Center
12:36PM 44.1633 -95.7044 53° Northeast 513 590 33,000 -840 Level Minneapolis Center
12:37PM 44.2647 -95.5153 53° Northeast 512 589 31,400 -2,460 Descending Minneapolis Center
12:38PM 44.3503 -95.3547 53° Northeast 516 594 28,000 -3,420 Descending Minneapolis Center
12:39PM 44.4369 -95.1900 54° Northeast 525 604 24,400 -3,000 Descending Minneapolis Center
12:40PM 44.4983 -95.0131 64° Northeast 511 588 21,900 -2,460 Descending Minneapolis Center
12:41PM 44.5400 -94.8325 72° East 495 570 19,400 -2,580 Descending Minneapolis Center
12:42PM 44.5808 -94.6578 72° East 479 551 16,600 -2,520 Descending Minneapolis Center
12:43PM 44.6269 -94.4539 72° East 444 511 13,800 -2,340 Descending Minneapolis Center
12:44PM 44.6631 -94.2958 72° East 430 495 11,300 -1,380 Descending Minneapolis Center
12:45PM 44.7039 -94.1069 73° East 421 484 11,000 -180 Descending Minneapolis Center
12:46PM 44.7386 -93.9517 72° East 418 481 11,000  Level Minneapolis Center
12:47PM 44.7736 -93.7989 72° East 412 474 11,000 -420 Level Minneapolis Center
12:48PM 44.8056 -93.6533 73° East 390 449 10,200 -1,020 Descending Minneapolis Center
12:49PM 44.8336 -93.5253 73° East 342 394 9,000 -1,080 Descending Minneapolis Center
12:50PM 44.8608 -93.3986 73° East 336 387 8,000 -540 Descending Minneapolis Center
12:51PM 44.8353 -93.2964 109° East 296 341 7,900 -1,260 Descending Minneapolis Center
12:53PM 44.6814 -93.2853 177° South 277 319 4,100 -1,440 Descending Minneapolis Center
12:54PM 44.6889 -93.2006 83° East 248 285 3,500 -540 Descending Minneapolis Center
12:55PM 44.7503 -93.2064 356° North 186 214 3,100 -420 Descending Minneapolis Center